Time,TemperatureF,DewpointF,PressureIn,WindDirection,WindDirectionDegrees,WindSpeedMPH,WindSpeedGustMPH,Humidity,HourlyPrecipIn,Conditions,Clouds,dailyrainin,SolarRadiationWatts/m^2,SoftwareType,DateUTC
2013-09-05 00:05:00,74.1,56.3,-100.00,SSW,192,2.9,4.0,53,0.00,,,-99.99,1.0,HOBO +U30 +Weather +,2013-09-05 06:05:00,
2013-09-05 00:10:00,73.5,56.5,-100.00,SSE,157,0.7,1.8,55,0.00,,,-99.99,1.0,HOBO +U30 +Weather +,2013-09-05 06:10:00,
2013-09-05 00:15:00,73.2,56.5,-100.00,SSE,157,0.0,0.7,55,0.00,,,-99.99,1.0,HOBO +U30 +Weather +,2013-09-05 06:15:00,
2013-09-05 00:20:00,73.1,56.4,-100.00,SSE,157,0.0,1.1,55,0.00,,,-99.99,1.0,HOBO +U30 +Weather +,2013-09-05 06:20:00,
2013-09-05 00:25:00,73.3,56.4,-100.00,SSE,157,0.7,1.1,55,0.00,,,-99.99,1.0,HOBO +U30 +Weather +,2013-09-05 06:25:00,
2013-09-05 00:30:00,73.4,56.3,-100.00,SSE,157,0.7,2.2,55,0.00,,,-99.99,1.0,HOBO +U30 +Weather +,2013-09-05 06:30:00,
2013-09-05 00:35:00,73.3,56.2,-100.00,SSE,157,0.0,1.1,55,0.00,,,-99.99,1.0,HOBO +U30 +Weather +,2013-09-05 06:35:00,
2013-09-05 00:40:00,72.7,56.2,-100.00,SSE,157,0.0,0.0,56,0.00,,,-99.99,1.0,HOBO +U30 +Weather +,2013-09-05 06:40:00,
2013-09-05 00:45:00,73.5,57.0,-100.00,SSE,157,1.1,2.2,56,0.00,,,-99.99,1.0,HOBO +U30 +Weather +,2013-09-05 06:45:00,
2013-09-05 00:50:00,73.3,56.6,-100.00,SSE,157,1.1,2.2,55,0.00,,,-99.99,1.0,HOBO +U30 +Weather +,2013-09-05 06:50:00,
2013-09-05 00:55:00,73.6,57.0,-100.00,SSW,206,2.2,5.6,56,0.00,,,-99.99,1.0,HOBO +U30 +Weather +,2013-09-05 06:55:00,
2013-09-05 01:00:00,73.5,57.4,-100.00,WSW,240,2.2,6.3,57,0.00,,,-99.99,1.0,HOBO +U30 +Weather +,2013-09-05 07:00:00,
2013-09-05 01:05:00,73.2,57.3,-100.00,West,277,1.1,3.4,57,0.00,,,-99.99,1.0,HOBO +U30 +Weather +,2013-09-05 07:05:00,
2013-09-05 01:10:00,73.1,57.2,-100.00,West,263,0.7,2.9,57,0.00,,,-99.99,1.0,HOBO +U30 +Weather +,2013-09-05 07:10:00,
2013-09-05 01:15:00,72.8,57.5,-100.00,SW,225,1.1,3.4,58,0.00,,,-99.99,1.0,HOBO +U30 +Weather +,2013-09-05 07:15:00,
2013-09-05 01:20:00,72.4,58.0,-100.00,SW,233,1.1,3.4,60,0.00,,,-99.99,1.0,HOBO +U30 +Weather +,2013-09-05 07:20:00,
2013-09-05 01:25:00,73.0,58.2,-100.00,SW,236,2.9,5.1,59,0.00,,,-99.99,1.0,HOBO +U30 +Weather +,2013-09-05 07:25:00,
2013-09-05 01:30:00,72.9,58.2,-100.00,SW,230,2.2,5.1,60,0.00,,,-99.99,1.0,HOBO +U30 +Weather +,2013-09-05 07:30:00,
2013-09-05 01:35:00,72.6,58.2,-100.00,SW,215,4.0,7.4,60,0.00,,,-99.99,1.0,HOBO +U30 +Weather +,2013-09-05 07:35:00,
2013-09-05 01:40:00,70.8,57.6,-100.00,South,180,3.4,5.1,62,0.00,,,-99.99,1.0,HOBO +U30 +Weather +,2013-09-05 07:40:00,
2013-09-05 01:45:00,69.9,57.5,-100.00,South,175,4.0,5.6,64,0.00,,,-99.99,1.0,HOBO +U30 +Weather +,2013-09-05 07:45:00,
2013-09-05 01:50:00,69.2,57.3,-100.00,South,181,5.1,6.3,65,0.00,,,-99.99,1.0,HOBO +U30 +Weather +,2013-09-05 07:50:00,
2013-09-05 02:02:00,69.1,57.3,-100.00,South,185,2.9,5.1,66,0.00,,,-99.99,1.0,HOBO +U30 +Weather +,2013-09-05 08:02:00,
2013-09-05 02:05:00,69.0,57.2,-100.00,South,185,2.2,4.0,66,0.00,,,-99.99,1.0,HOBO +U30 +Weather +,2013-09-05 08:05:00,
2013-09-05 02:10:00,69.0,57.0,-100.00,South,185,2.2,3.4,65,0.00,,,-99.99,1.0,HOBO +U30 +Weather +,2013-09-05 08:10:00,
2013-09-05 02:15:00,69.0,57.0,-100.00,South,188,3.4,5.1,65,0.00,,,-99.99,1.0,HOBO +U30 +Weather +,2013-09-05 08:15:00,
2013-09-05 02:20:00,68.8,57.0,-100.00,South,187,3.4,5.1,66,0.00,,,-99.99,1.0,HOBO +U30 +Weather +,2013-09-05 08:20:00,
2013-09-05 02:25:00,68.5,57.1,-100.00,South,188,2.9,4.5,66,0.00,,,-99.99,1.0,HOBO +U30 +Weather +,2013-09-05 08:25:00,
2013-09-05 02:30:00,68.7,57.6,-100.00,South,191,2.2,4.5,67,0.00,,,-99.99,1.0,HOBO +U30 +Weather +,2013-09-05 08:30:00,
2013-09-05 02:35:00,68.8,57.4,-100.00,SSW,202,1.1,2.9,66,0.00,,,-99.99,1.0,HOBO +U30 +Weather +,2013-09-05 08:35:00,
2013-09-05 02:40:00,68.8,57.3,-100.00,SSW,202,0.7,2.9,66,0.00,,,-99.99,1.0,HOBO +U30 +Weather +,2013-09-05 08:40:00,
2013-09-05 02:45:00,68.6,57.0,-100.00,SSW,202,0.7,2.2,66,0.00,,,-99.99,1.0,HOBO +U30 +Weather +,2013-09-05 08:45:00,
2013-09-05 02:50:00,68.3,57.0,-100.00,SSW,202,2.2,2.9,67,0.00,,,-99.99,1.0,HOBO +U30 +Weather +,2013-09-05 08:50:00,
2013-09-05 02:55:00,68.6,56.9,-100.00,SSW,202,1.8,3.4,66,0.00,,,-99.99,1.0,HOBO +U30 +Weather +,2013-09-05 08:55:00,
2013-09-05 03:00:00,68.3,57.3,-100.00,SSW,202,0.0,1.8,67,0.00,,,-99.99,1.0,HOBO +U30 +Weather +,2013-09-05 09:00:00,
2013-09-05 03:05:00,68.1,57.3,-100.00,SSW,202,0.0,1.8,68,0.00,,,-99.99,1.0,HOBO +U30 +Weather +,2013-09-05 09:05:00,
2013-09-05 03:10:00,68.5,57.2,-100.00,SSW,202,2.2,4.0,67,0.00,,,-99.99,1.0,HOBO +U30 +Weather +,2013-09-05 09:10:00,
2013-09-05 03:15:00,68.6,57.0,-100.00,SSW,212,2.2,4.5,66,0.00,,,-99.99,1.0,HOBO +U30 +Weather +,2013-09-05 09:15:00,
2013-09-05 03:20:00,68.4,57.3,-100.00,SW,218,2.9,5.1,67,0.00,,,-99.99,1.0,HOBO +U30 +Weather +,2013-09-05 09:20:00,
2013-09-05 03:25:00,68.4,57.4,-100.00,SW,229,2.9,5.1,67,0.00,,,-99.99,1.0,HOBO +U30 +Weather +,2013-09-05 09:25:00,
2013-09-05 03:30:00,68.3,57.4,-100.00,WSW,237,2.2,4.5,68,0.00,,,-99.99,1.0,HOBO +U30 +Weather +,2013-09-05 09:30:00,
2013-09-05 03:35:00,68.0,57.5,-100.00,WSW,237,1.8,4.5,69,0.00,,,-99.99,1.0,HOBO +U30 +Weather +,2013-09-05 09:35:00,
2013-09-05 03:40:00,68.0,57.3,-100.00,SW,230,2.9,5.1,68,0.00,,,-99.99,1.0,HOBO +U30 +Weather +,2013-09-05 09:40:00,
2013-09-05 03:45:00,67.6,57.4,-100.00,SW,215,1.1,4.0,69,0.00,,,-99.99,1.0,HOBO +U30 +Weather +,2013-09-05 09:45:00,
2013-09-05 03:50:00,67.6,57.3,-100.00,SW,219,2.2,4.0,69,0.00,,,-99.99,1.0,HOBO +U30 +Weather +,2013-09-05 09:50:00,
2013-09-05 04:00:00,67.0,56.2,-100.00,SW,225,3.4,6.7,68,0.00,,,-99.99,1.0,HOBO +U30 +Weather +,2013-09-05 10:00:00,
2013-09-05 04:01:00,67.1,57.3,-100.00,SW,223,3.4,5.6,70,0.00,,,-99.99,1.0,HOBO +U30 +Weather +,2013-09-05 10:01:00,
2013-09-05 04:05:00,66.8,55.9,-100.00,SSW,211,3.4,5.6,68,0.00,,,-99.99,1.0,HOBO +U30 +Weather +,2013-09-05 10:05:00,
2013-09-05 04:10:00,66.5,55.0,-100.00,SSW,206,2.9,4.0,66,0.00,,,-99.99,1.0,HOBO +U30 +Weather +,2013-09-05 10:10:00,
2013-09-05 04:15:00,66.3,54.9,-100.00,SSW,205,1.8,4.0,66,0.00,,,-99.99,1.0,HOBO +U30 +Weather +,2013-09-05 10:15:00,
2013-09-05 04:20:00,66.3,55.0,-100.00,SSW,205,1.8,4.0,66,0.00,,,-99.99,1.0,HOBO +U30 +Weather +,2013-09-05 10:20:00,
2013-09-05 04:25:00,65.9,54.9,-100.00,SSW,205,3.4,5.1,67,0.00,,,-99.99,1.0,HOBO +U30 +Weather +,2013-09-05 10:25:00,
2013-09-05 04:30:00,65.8,54.9,-100.00,SSW,204,3.4,5.6,68,0.00,,,-99.99,1.0,HOBO +U30 +Weather +,2013-09-05 10:30:00,
2013-09-05 04:35:00,65.5,55.0,-100.00,SSW,202,3.4,5.6,68,0.00,,,-99.99,1.0,HOBO +U30 +Weather +,2013-09-05 10:35:00,
2013-09-05 04:40:00,65.7,55.5,-100.00,SSW,206,1.8,4.0,69,0.00,,,-99.99,1.0,HOBO +U30 +Weather +,2013-09-05 10:40:00,
2013-09-05 04:45:00,66.0,56.1,-100.00,SSW,213,1.1,3.4,70,0.00,,,-99.99,1.0,HOBO +U30 +Weather +,2013-09-05 10:45:00,
2013-09-05 04:50:00,66.0,56.5,-100.00,SW,234,2.9,4.5,71,0.00,,,-99.99,1.0,HOBO +U30 +Weather +,2013-09-05 10:50:00,
2013-09-05 04:55:00,66.0,56.3,-100.00,WSW,237,3.4,5.6,70,0.00,,,-99.99,1.0,HOBO +U30 +Weather +,2013-09-05 10:55:00,
2013-09-05 05:00:00,65.7,56.4,-100.00,WSW,256,4.0,6.3,72,0.00,,,-99.99,1.0,HOBO +U30 +Weather +,2013-09-05 11:00:00,
2013-09-05 05:05:00,65.4,56.6,-100.00,WSW,254,4.5,7.8,73,0.00,,,-99.99,1.0,HOBO +U30 +Weather +,2013-09-05 11:05:00,
2013-09-05 05:10:00,65.4,56.7,-100.00,WSW,244,4.0,6.7,73,0.00,,,-99.99,1.0,HOBO +U30 +Weather +,2013-09-05 11:10:00,
2013-09-05 05:15:00,65.3,56.8,-100.00,SW,232,4.0,7.4,73,0.00,,,-99.99,1.0,HOBO +U30 +Weather +,2013-09-05 11:15:00,
2013-09-05 05:20:00,65.1,56.8,-100.00,SW,223,4.5,6.3,74,0.00,,,-99.99,1.0,HOBO +U30 +Weather +,2013-09-05 11:20:00,
2013-09-05 05:25:00,64.7,56.7,-100.00,SW,226,5.1,7.4,75,0.00,,,-99.99,1.0,HOBO +U30 +Weather +,2013-09-05 11:25:00,
2013-09-05 05:30:00,64.7,56.8,-100.00,SW,229,4.5,7.4,75,0.00,,,-99.99,1.0,HOBO +U30 +Weather +,2013-09-05 11:30:00,
2013-09-05 05:35:00,64.7,56.9,-100.00,SW,225,5.1,8.5,75,0.00,,,-99.99,1.0,HOBO +U30 +Weather +,2013-09-05 11:35:00,
2013-09-05 05:40:00,64.5,56.8,-100.00,SW,219,4.0,7.4,75,0.00,,,-99.99,1.0,HOBO +U30 +Weather +,2013-09-05 11:40:00,
2013-09-05 05:45:00,64.4,56.3,-100.00,SSW,209,4.5,6.3,75,0.00,,,-99.99,1.0,HOBO +U30 +Weather +,2013-09-05 11:45:00,
2013-09-05 05:59:00,63.9,55.9,-100.00,South,190,2.9,4.5,75,0.00,,,-99.99,1.0,HOBO +U30 +Weather +,2013-09-05 11:59:00,
2013-09-05 06:00:00,64.1,56.0,-100.00,SSW,209,2.9,5.6,74,0.00,,,-99.99,1.0,HOBO +U30 +Weather +,2013-09-05 12:00:00,
2013-09-05 06:05:00,63.5,55.5,-100.00,SSW,194,4.5,5.6,75,0.00,,,-99.99,1.0,HOBO +U30 +Weather +,2013-09-05 12:05:00,
2013-09-05 06:10:00,63.1,55.4,-100.00,SSW,195,4.0,5.6,75,0.00,,,-99.99,1.0,HOBO +U30 +Weather +,2013-09-05 12:10:00,
2013-09-05 06:15:00,63.1,55.6,-100.00,SSW,197,4.5,6.3,76,0.00,,,-99.99,1.0,HOBO +U30 +Weather +,2013-09-05 12:15:00,
2013-09-05 06:20:00,62.9,55.6,-100.00,SSW,197,4.5,7.4,76,0.00,,,-99.99,1.0,HOBO +U30 +Weather +,2013-09-05 12:20:00,
2013-09-05 06:25:00,62.5,55.6,-100.00,South,188,4.5,6.7,78,0.00,,,-99.99,1.0,HOBO +U30 +Weather +,2013-09-05 12:25:00,
2013-09-05 06:30:00,62.3,55.7,-100.00,South,178,4.0,5.6,78,0.00,,,-99.99,1.0,HOBO +U30 +Weather +,2013-09-05 12:30:00,
2013-09-05 06:35:00,61.7,55.3,-100.00,SSE,159,4.5,5.6,79,0.00,,,-99.99,2.0,HOBO +U30 +Weather +,2013-09-05 12:35:00,
2013-09-05 06:40:00,61.8,55.5,-100.00,South,171,4.5,6.3,79,0.00,,,-99.99,4.0,HOBO +U30 +Weather +,2013-09-05 12:40:00,
2013-09-05 06:45:00,62.0,55.7,-100.00,South,188,4.0,6.3,79,0.00,,,-99.99,6.0,HOBO +U30 +Weather +,2013-09-05 12:45:00,
2013-09-05 06:50:00,61.9,55.7,-100.00,SSW,195,3.4,5.6,79,0.00,,,-99.99,12.0,HOBO +U30 +Weather +,2013-09-05 12:50:00,
2013-09-05 06:55:00,62.1,55.7,-100.00,SSW,205,5.1,7.8,79,0.00,,,-99.99,19.0,HOBO +U30 +Weather +,2013-09-05 12:55:00,
2013-09-05 07:00:00,62.6,56.0,-100.00,SSW,206,5.1,7.8,78,0.00,,,-99.99,27.0,HOBO +U30 +Weather +,2013-09-05 13:00:00,
2013-09-05 07:05:00,62.6,55.8,-100.00,SSW,202,5.6,7.8,78,0.00,,,-99.99,38.0,HOBO +U30 +Weather +,2013-09-05 13:05:00,
2013-09-05 07:10:00,63.0,56.1,-100.00,SSW,201,5.1,7.8,78,0.00,,,-99.99,48.0,HOBO +U30 +Weather +,2013-09-05 13:10:00,
2013-09-05 07:15:00,63.3,56.0,-100.00,SW,218,4.0,7.4,77,0.00,,,-99.99,61.0,HOBO +U30 +Weather +,2013-09-05 13:15:00,
2013-09-05 07:20:00,63.8,56.1,-100.00,SSW,209,3.4,5.6,76,0.00,,,-99.99,76.0,HOBO +U30 +Weather +,2013-09-05 13:20:00,
2013-09-05 07:25:00,64.2,56.2,-100.00,SSW,211,3.4,6.7,75,0.00,,,-99.99,89.0,HOBO +U30 +Weather +,2013-09-05 13:25:00,
2013-09-05 07:30:00,64.5,56.4,-100.00,SSW,205,2.9,6.7,74,0.00,,,-99.99,103.0,HOBO +U30 +Weather +,2013-09-05 13:30:00,
2013-09-05 07:35:00,64.1,56.3,-100.00,SSW,212,5.6,8.9,75,0.00,,,-99.99,116.0,HOBO +U30 +Weather +,2013-09-05 13:35:00,
2013-09-05 07:40:00,64.2,56.4,-100.00,SSW,208,6.3,8.5,75,0.00,,,-99.99,127.0,HOBO +U30 +Weather +,2013-09-05 13:40:00,
2013-09-05 07:45:00,64.6,56.6,-100.00,SSW,209,5.1,8.5,75,0.00,,,-99.99,139.0,HOBO +U30 +Weather +,2013-09-05 13:45:00,
2013-09-05 07:56:00,64.9,56.7,-100.00,SSW,209,4.5,7.8,74,0.00,,,-99.99,151.0,HOBO +U30 +Weather +,2013-09-05 13:56:00,
2013-09-05 08:00:00,65.8,56.7,-100.00,SW,215,6.3,10.7,72,0.00,,,-99.99,174.0,HOBO +U30 +Weather +,2013-09-05 14:00:00,
2013-09-05 08:05:00,65.8,56.7,-100.00,SW,219,6.3,9.6,72,0.00,,,-99.99,187.0,HOBO +U30 +Weather +,2013-09-05 14:05:00,
2013-09-05 08:10:00,66.5,57.1,-100.00,SSW,205,4.5,8.9,71,0.00,,,-99.99,201.0,HOBO +U30 +Weather +,2013-09-05 14:10:00,
2013-09-05 08:15:00,66.6,57.1,-100.00,SSW,205,4.5,7.8,71,0.00,,,-99.99,214.0,HOBO +U30 +Weather +,2013-09-05 14:15:00,
2013-09-05 08:20:00,67.1,57.3,-100.00,SSW,198,5.1,7.4,70,0.00,,,-99.99,232.0,HOBO +U30 +Weather +,2013-09-05 14:20:00,
2013-09-05 08:25:00,66.9,57.3,-100.00,SSW,204,5.6,8.9,71,0.00,,,-99.99,249.0,HOBO +U30 +Weather +,2013-09-05 14:25:00,
2013-09-05 08:30:00,67.6,57.5,-100.00,SSW,206,5.1,8.5,70,0.00,,,-99.99,271.0,HOBO +U30 +Weather +,2013-09-05 14:30:00,
2013-09-05 08:35:00,67.8,57.5,-100.00,SW,220,4.0,6.3,69,0.00,,,-99.99,292.0,HOBO +U30 +Weather +,2013-09-05 14:35:00,
2013-09-05 08:40:00,68.3,57.6,-100.00,SSW,211,4.0,7.8,68,0.00,,,-99.99,309.0,HOBO +U30 +Weather +,2013-09-05 14:40:00,
2013-09-05 08:54:00,68.7,57.8,-100.00,SSW,212,4.0,6.7,68,0.00,,,-99.99,322.0,HOBO +U30 +Weather +,2013-09-05 14:54:00,
2013-09-05 08:55:00,68.6,57.7,-100.00,SSW,195,5.6,7.8,68,0.00,,,-99.99,263.0,HOBO +U30 +Weather +,2013-09-05 14:55:00,
2013-09-05 09:00:00,69.0,57.9,-100.00,SSW,201,5.1,7.8,67,0.00,,,-99.99,339.0,HOBO +U30 +Weather +,2013-09-05 15:00:00,
2013-09-05 09:05:00,69.9,58.2,-100.00,SSW,192,4.5,6.7,66,0.00,,,-99.99,227.0,HOBO +U30 +Weather +,2013-09-05 15:05:00,
2013-09-05 09:10:00,69.7,58.0,-100.00,South,190,4.0,7.4,66,0.00,,,-99.99,274.0,HOBO +U30 +Weather +,2013-09-05 15:10:00,
2013-09-05 09:15:00,69.6,57.9,-100.00,SSW,195,5.1,7.8,66,0.00,,,-99.99,373.0,HOBO +U30 +Weather +,2013-09-05 15:15:00,
2013-09-05 09:20:00,70.3,58.0,-100.00,SSW,202,3.4,6.3,65,0.00,,,-99.99,383.0,HOBO +U30 +Weather +,2013-09-05 15:20:00,
2013-09-05 09:25:00,70.2,58.1,-100.00,SSW,199,5.1,7.8,65,0.00,,,-99.99,392.0,HOBO +U30 +Weather +,2013-09-05 15:25:00,
2013-09-05 09:30:00,71.1,58.5,-100.00,South,190,4.5,7.4,64,0.00,,,-99.99,403.0,HOBO +U30 +Weather +,2013-09-05 15:30:00,
2013-09-05 09:35:00,71.9,58.2,-100.00,SSW,197,3.4,5.1,62,0.00,,,-99.99,414.0,HOBO +U30 +Weather +,2013-09-05 15:35:00,
2013-09-05 09:40:00,72.4,58.4,-100.00,SSW,197,2.2,5.6,61,0.00,,,-99.99,426.0,HOBO +U30 +Weather +,2013-09-05 15:40:00,
2013-09-05 09:53:00,73.7,59.0,-100.00,South,183,1.8,4.0,60,0.00,,,-99.99,438.0,HOBO +U30 +Weather +,2013-09-05 15:53:00,
2013-09-05 09:55:00,75.0,58.5,-100.00,South,188,1.8,4.5,56,0.00,,,-99.99,461.0,HOBO +U30 +Weather +,2013-09-05 15:55:00,
2013-09-05 10:00:00,76.0,59.2,-100.00,SSW,192,1.8,4.5,56,0.00,,,-99.99,472.0,HOBO +U30 +Weather +,2013-09-05 16:00:00,
2013-09-05 10:05:00,75.7,59.3,-100.00,SSE,150,3.4,6.7,56,0.00,,,-99.99,482.0,HOBO +U30 +Weather +,2013-09-05 16:05:00,
2013-09-05 10:10:00,76.3,58.8,-100.00,SSE,160,3.4,6.3,54,0.00,,,-99.99,492.0,HOBO +U30 +Weather +,2013-09-05 16:10:00,
2013-09-05 10:15:00,76.3,59.4,-100.00,South,170,2.2,5.1,55,0.00,,,-99.99,504.0,HOBO +U30 +Weather +,2013-09-05 16:15:00,
2013-09-05 10:20:00,78.8,59.2,-100.00,SE,131,1.8,3.4,51,0.00,,,-99.99,514.0,HOBO +U30 +Weather +,2013-09-05 16:20:00,
2013-09-05 10:25:00,77.3,57.8,-100.00,SW,218,3.4,8.5,51,0.00,,,-99.99,524.0,HOBO +U30 +Weather +,2013-09-05 16:25:00,
2013-09-05 10:30:00,77.8,58.1,-100.00,WSW,248,3.4,7.4,50,0.00,,,-99.99,534.0,HOBO +U30 +Weather +,2013-09-05 16:30:00,
2013-09-05 10:35:00,78.0,58.4,-100.00,West,264,2.9,5.6,50,0.00,,,-99.99,543.0,HOBO +U30 +Weather +,2013-09-05 16:35:00,
2013-09-05 10:40:00,79.0,58.5,-100.00,WSW,240,2.2,5.1,49,0.00,,,-99.99,554.0,HOBO +U30 +Weather +,2013-09-05 16:40:00,
2013-09-05 10:52:00,79.7,58.5,-100.00,WSW,246,2.9,5.6,48,0.00,,,-99.99,558.0,HOBO +U30 +Weather +,2013-09-05 16:52:00,
2013-09-05 10:55:00,82.1,59.4,-100.00,WSW,244,1.1,4.0,46,0.00,,,-99.99,578.0,HOBO +U30 +Weather +,2013-09-05 16:55:00,
2013-09-05 11:00:00,81.5,58.3,-100.00,SW,225,2.2,6.7,45,0.00,,,-99.99,587.0,HOBO +U30 +Weather +,2013-09-05 17:00:00,
2013-09-05 11:05:00,83.2,59.7,-100.00,WSW,243,1.1,5.1,45,0.00,,,-99.99,593.0,HOBO +U30 +Weather +,2013-09-05 17:05:00,
2013-09-05 11:10:00,83.9,59.3,-100.00,SSW,205,1.8,4.5,43,0.00,,,-99.99,601.0,HOBO +U30 +Weather +,2013-09-05 17:10:00,
2013-09-05 11:15:00,84.4,59.0,-100.00,South,180,2.9,5.1,42,0.00,,,-99.99,606.0,HOBO +U30 +Weather +,2013-09-05 17:15:00,
2013-09-05 11:20:00,85.7,58.6,-100.00,SW,225,2.2,6.3,40,0.00,,,-99.99,613.0,HOBO +U30 +Weather +,2013-09-05 17:20:00,
2013-09-05 11:25:00,83.2,58.5,-100.00,SW,233,4.0,8.5,43,0.00,,,-99.99,618.0,HOBO +U30 +Weather +,2013-09-05 17:25:00,
2013-09-05 11:30:00,83.2,58.6,-100.00,SSW,209,5.6,10.1,43,0.00,,,-99.99,626.0,HOBO +U30 +Weather +,2013-09-05 17:30:00,
2013-09-05 11:35:00,83.7,58.4,-100.00,SSW,197,5.6,9.6,42,0.00,,,-99.99,632.0,HOBO +U30 +Weather +,2013-09-05 17:35:00,
2013-09-05 11:40:00,84.2,58.8,-100.00,SSW,202,5.1,8.5,42,0.00,,,-99.99,637.0,HOBO +U30 +Weather +,2013-09-05 17:40:00,
2013-09-05 11:51:00,85.4,58.1,-100.00,South,187,4.5,8.5,39,0.00,,,-99.99,643.0,HOBO +U30 +Weather +,2013-09-05 17:51:00,
2013-09-05 11:55:00,86.2,58.7,-100.00,SSW,212,2.9,4.5,39,0.00,,,-99.99,654.0,HOBO +U30 +Weather +,2013-09-05 17:55:00,
2013-09-05 12:00:00,87.6,58.9,-100.00,SSE,157,2.2,5.1,38,0.00,,,-99.99,659.0,HOBO +U30 +Weather +,2013-09-05 18:00:00,
2013-09-05 12:05:00,89.6,58.8,-100.00,SSE,163,1.1,4.5,35,0.00,,,-99.99,664.0,HOBO +U30 +Weather +,2013-09-05 18:05:00,
2013-09-05 12:10:00,88.4,58.4,-100.00,SSE,166,2.2,4.5,36,0.00,,,-99.99,669.0,HOBO +U30 +Weather +,2013-09-05 18:10:00,
2013-09-05 12:15:00,86.8,57.5,-100.00,WSW,248,2.2,4.5,37,0.00,,,-99.99,673.0,HOBO +U30 +Weather +,2013-09-05 18:15:00,
2013-09-05 12:20:00,87.3,56.7,-100.00,WNW,288,1.8,4.0,35,0.00,,,-99.99,681.0,HOBO +U30 +Weather +,2013-09-05 18:20:00,
2013-09-05 12:25:00,88.4,57.4,-100.00,West,268,1.1,4.5,35,0.00,,,-99.99,686.0,HOBO +U30 +Weather +,2013-09-05 18:25:00,
2013-09-05 12:30:00,89.1,58.0,-100.00,ENE,63,2.2,5.1,35,0.00,,,-99.99,696.0,HOBO +U30 +Weather +,2013-09-05 18:30:00,
2013-09-05 12:35:00,90.1,57.9,-100.00,SSE,153,2.2,4.5,33,0.00,,,-99.99,712.0,HOBO +U30 +Weather +,2013-09-05 18:35:00,
2013-09-05 12:40:00,90.3,57.4,-100.00,NNE,15,1.1,6.7,33,0.00,,,-99.99,792.0,HOBO +U30 +Weather +,2013-09-05 18:40:00,
2013-09-05 12:50:00,89.5,56.8,-100.00,NNE,22,4.0,6.7,33,0.00,,,-99.99,766.0,HOBO +U30 +Weather +,2013-09-05 18:50:00,
2013-09-05 12:55:00,90.4,56.1,-100.00,NNW,338,2.9,6.3,31,0.00,,,-99.99,828.0,HOBO +U30 +Weather +,2013-09-05 18:55:00,
2013-09-05 13:00:00,91.3,55.8,-100.00,NNW,334,2.9,7.8,30,0.00,,,-99.99,659.0,HOBO +U30 +Weather +,2013-09-05 19:00:00,
2013-09-05 13:05:00,91.8,56.3,-100.00,North,6,1.8,5.1,30,0.00,,,-99.99,821.0,HOBO +U30 +Weather +,2013-09-05 19:05:00,
2013-09-05 13:10:00,90.7,55.2,-100.00,NNW,329,4.0,7.4,30,0.00,,,-99.99,193.0,HOBO +U30 +Weather +,2013-09-05 19:10:00,
2013-09-05 13:15:00,90.2,55.1,-100.00,NE,37,3.4,7.4,30,0.00,,,-99.99,292.0,HOBO +U30 +Weather +,2013-09-05 19:15:00,
2013-09-05 13:20:00,91.9,54.9,-100.00,North,8,4.5,7.8,28,0.00,,,-99.99,314.0,HOBO +U30 +Weather +,2013-09-05 19:20:00,
2013-09-05 13:25:00,91.5,55.3,-100.00,NNE,18,5.1,7.8,29,0.00,,,-99.99,349.0,HOBO +U30 +Weather +,2013-09-05 19:25:00,
2013-09-05 13:30:00,91.9,55.6,-100.00,North,11,5.6,9.6,29,0.00,,,-99.99,959.0,HOBO +U30 +Weather +,2013-09-05 19:30:00,
2013-09-05 13:35:00,92.8,56.1,-100.00,NNE,24,5.6,8.5,29,0.00,,,-99.99,258.0,HOBO +U30 +Weather +,2013-09-05 19:35:00,
2013-09-05 13:49:00,94.9,55.3,-100.00,North,7,6.3,9.6,26,0.00,,,-99.99,784.0,HOBO +U30 +Weather +,2013-09-05 19:49:00,
2013-09-05 13:50:00,95.6,55.4,-100.00,North,3,4.5,10.7,26,0.00,,,-99.99,722.0,HOBO +U30 +Weather +,2013-09-05 19:50:00,
2013-09-05 13:55:00,94.6,56.0,-100.00,NNW,343,4.5,9.6,27,0.00,,,-99.99,711.0,HOBO +U30 +Weather +,2013-09-05 19:55:00,
2013-09-05 14:00:00,96.0,55.5,-100.00,North,355,4.5,10.7,25,0.00,,,-99.99,683.0,HOBO +U30 +Weather +,2013-09-05 20:00:00,
2013-09-05 14:05:00,95.6,55.2,-100.00,North,11,6.3,10.1,26,0.00,,,-99.99,272.0,HOBO +U30 +Weather +,2013-09-05 20:05:00,
2013-09-05 14:10:00,94.6,55.5,-100.00,NNE,14,6.3,10.1,27,0.00,,,-99.99,676.0,HOBO +U30 +Weather +,2013-09-05 20:10:00,
2013-09-05 14:15:00,95.5,55.4,-100.00,North,10,8.5,12.3,26,0.00,,,-99.99,668.0,HOBO +U30 +Weather +,2013-09-05 20:15:00,
2013-09-05 14:20:00,94.0,55.7,-100.00,NNE,13,7.4,12.3,27,0.00,,,-99.99,441.0,HOBO +U30 +Weather +,2013-09-05 20:20:00,
2013-09-05 14:25:00,93.0,55.9,-100.00,NNE,20,7.8,13.4,28,0.00,,,-99.99,671.0,HOBO +U30 +Weather +,2013-09-05 20:25:00,
2013-09-05 14:30:00,92.7,56.0,-100.00,NNE,22,9.6,15.2,29,0.00,,,-99.99,668.0,HOBO +U30 +Weather +,2013-09-05 20:30:00,
2013-09-05 14:35:00,96.5,56.4,-100.00,North,10,7.4,12.3,26,0.00,,,-99.99,481.0,HOBO +U30 +Weather +,2013-09-05 20:35:00,
2013-09-05 14:48:00,93.8,55.8,-100.00,NNE,15,8.9,13.0,28,0.00,,,-99.99,689.0,HOBO +U30 +Weather +,2013-09-05 20:48:00,
2013-09-05 14:50:00,94.3,56.5,-100.00,NNE,20,8.5,14.1,28,0.00,,,-99.99,691.0,HOBO +U30 +Weather +,2013-09-05 20:50:00,
2013-09-05 14:55:00,95.2,56.4,-100.00,North,6,8.9,13.0,27,0.00,,,-99.99,407.0,HOBO +U30 +Weather +,2013-09-05 20:55:00,
2013-09-05 15:00:00,95.8,56.8,-100.00,NNE,18,7.4,11.2,27,0.00,,,-99.99,613.0,HOBO +U30 +Weather +,2013-09-05 21:00:00,
2013-09-05 15:05:00,95.3,56.9,-100.00,NNE,28,7.4,10.7,27,0.00,,,-99.99,626.0,HOBO +U30 +Weather +,2013-09-05 21:05:00,
2013-09-05 15:10:00,94.0,56.3,-100.00,NNE,21,11.2,15.2,28,0.00,,,-99.99,621.0,HOBO +U30 +Weather +,2013-09-05 21:10:00,
2013-09-05 15:15:00,97.2,56.4,-100.00,NNE,13,7.8,11.2,25,0.00,,,-99.99,614.0,HOBO +U30 +Weather +,2013-09-05 21:15:00,
2013-09-05 15:20:00,97.6,57.1,-100.00,North,11,10.1,13.4,26,0.00,,,-99.99,611.0,HOBO +U30 +Weather +,2013-09-05 21:20:00,
2013-09-05 15:25:00,99.0,56.6,-100.00,North,3,8.5,13.4,24,0.00,,,-99.99,579.0,HOBO +U30 +Weather +,2013-09-05 21:25:00,
2013-09-05 15:30:00,96.0,56.0,-100.00,North,11,8.9,13.0,26,0.00,,,-99.99,567.0,HOBO +U30 +Weather +,2013-09-05 21:30:00,
2013-09-05 15:35:00,94.8,56.5,-100.00,NNE,21,10.1,15.2,27,0.00,,,-99.99,597.0,HOBO +U30 +Weather +,2013-09-05 21:35:00,
2013-09-05 15:47:00,97.0,56.0,-100.00,North,8,8.5,11.9,25,0.00,,,-99.99,161.0,HOBO +U30 +Weather +,2013-09-05 21:47:00,
2013-09-05 15:50:00,94.7,55.5,-100.00,NNE,17,8.5,12.3,26,0.00,,,-99.99,108.0,HOBO +U30 +Weather +,2013-09-05 21:50:00,
2013-09-05 15:55:00,96.9,54.4,-100.00,NNE,13,8.5,13.0,24,0.00,,,-99.99,168.0,HOBO +U30 +Weather +,2013-09-05 21:55:00,
2013-09-05 16:00:00,97.6,56.5,-100.00,North,7,6.3,11.9,25,0.00,,,-99.99,194.0,HOBO +U30 +Weather +,2013-09-05 22:00:00,
2013-09-05 16:05:00,95.5,55.1,-100.00,North,7,8.5,11.9,26,0.00,,,-99.99,83.0,HOBO +U30 +Weather +,2013-09-05 22:05:00,
2013-09-05 16:10:00,96.0,56.7,-100.00,NNE,14,6.7,9.6,27,0.00,,,-99.99,112.0,HOBO +U30 +Weather +,2013-09-05 22:10:00,
2013-09-05 16:15:00,94.7,55.7,-100.00,North,10,8.9,12.3,27,0.00,,,-99.99,62.0,HOBO +U30 +Weather +,2013-09-05 22:15:00,
2013-09-05 16:20:00,94.6,55.3,-100.00,NNE,18,4.5,7.8,26,0.00,,,-99.99,63.0,HOBO +U30 +Weather +,2013-09-05 22:20:00,
2013-09-05 16:25:00,93.8,56.0,-100.00,SSE,153,5.6,13.0,28,0.00,,,-99.99,244.0,HOBO +U30 +Weather +,2013-09-05 22:25:00,
2013-09-05 16:30:00,83.6,62.1,-100.00,South,173,14.5,25.9,48,0.24,,,-99.99,434.0,HOBO +U30 +Weather +,2013-09-05 22:30:00,
2013-09-05 16:35:00,84.8,63.2,-100.00,SSE,159,12.3,17.4,48,0.00,,,-99.99,533.0,HOBO +U30 +Weather +,2013-09-05 22:35:00,
2013-09-05 16:45:00,83.1,58.6,-100.00,SSE,159,17.4,24.8,43,0.14,,,-99.99,179.0,HOBO +U30 +Weather +,2013-09-05 22:45:00,
2013-09-05 16:50:00,84.3,60.4,-100.00,SE,125,9.6,17.4,44,0.00,,,-99.99,104.0,HOBO +U30 +Weather +,2013-09-05 22:50:00,
2013-09-05 16:55:00,85.6,58.4,-100.00,ESE,107,6.3,10.1,39,0.00,,,-99.99,97.0,HOBO +U30 +Weather +,2013-09-05 22:55:00,
2013-09-05 17:00:00,85.2,58.9,-100.00,NE,56,6.7,10.1,41,0.00,,,-99.99,108.0,HOBO +U30 +Weather +,2013-09-05 23:00:00,
2013-09-05 17:05:00,84.8,58.4,-100.00,NE,42,7.4,14.5,40,0.00,,,-99.99,128.0,HOBO +U30 +Weather +,2013-09-05 23:05:00,
2013-09-05 17:10:00,86.2,59.5,-100.00,NNE,29,6.7,9.6,40,0.00,,,-99.99,177.0,HOBO +U30 +Weather +,2013-09-05 23:10:00,
2013-09-05 17:15:00,85.6,59.4,-100.00,NNE,31,7.8,12.3,41,0.00,,,-99.99,457.0,HOBO +U30 +Weather +,2013-09-05 23:15:00,
2013-09-05 17:20:00,85.2,59.2,-100.00,NE,44,6.7,8.9,41,0.00,,,-99.99,427.0,HOBO +U30 +Weather +,2013-09-05 23:20:00,
2013-09-05 17:25:00,86.1,59.4,-100.00,ENE,60,4.5,6.7,40,0.00,,,-99.99,383.0,HOBO +U30 +Weather +,2013-09-05 23:25:00,
2013-09-05 17:30:00,87.4,58.9,-100.00,NE,38,3.4,7.4,38,0.00,,,-99.99,358.0,HOBO +U30 +Weather +,2013-09-05 23:30:00,
2013-09-05 17:44:00,89.8,60.9,-100.00,North,6,5.6,8.9,38,0.00,,,-99.99,332.0,HOBO +U30 +Weather +,2013-09-05 23:44:00,
2013-09-05 17:45:00,89.8,59.8,-100.00,NNW,337,3.4,7.8,36,0.00,,,-99.99,288.0,HOBO +U30 +Weather +,2013-09-05 23:45:00,
2013-09-05 17:50:00,89.9,57.8,-100.00,North,350,8.9,27.5,34,0.00,,,-99.99,271.0,HOBO +U30 +Weather +,2013-09-05 23:50:00,
2013-09-05 17:55:00,87.2,59.3,-100.00,North,351,14.1,26.4,39,0.00,,,-99.99,256.0,HOBO +U30 +Weather +,2013-09-05 23:55:00,
2013-09-05 18:00:00,85.4,59.5,-100.00,NNW,331,11.9,24.2,41,0.00,,,-99.99,243.0,HOBO +U30 +Weather +,2013-09-06 00:00:00,
2013-09-05 18:05:00,85.0,59.9,-100.00,NNW,341,12.3,20.4,42,0.00,,,-99.99,229.0,HOBO +U30 +Weather +,2013-09-06 00:05:00,
2013-09-05 18:10:00,85.8,59.6,-100.00,NNW,340,7.8,17.0,41,0.00,,,-99.99,216.0,HOBO +U30 +Weather +,2013-09-06 00:10:00,
2013-09-05 18:15:00,86.4,59.1,-100.00,North,350,8.5,15.2,39,0.00,,,-99.99,201.0,HOBO +U30 +Weather +,2013-09-06 00:15:00,
2013-09-05 18:20:00,86.7,59.7,-100.00,North,355,8.9,13.0,40,0.00,,,-99.99,189.0,HOBO +U30 +Weather +,2013-09-06 00:20:00,
2013-09-05 18:25:00,86.5,60.2,-100.00,North,352,6.7,12.3,41,0.00,,,-99.99,174.0,HOBO +U30 +Weather +,2013-09-06 00:25:00,
2013-09-05 18:30:00,86.6,59.9,-100.00,North,355,6.7,13.4,40,0.00,,,-99.99,163.0,HOBO +U30 +Weather +,2013-09-06 00:30:00,
2013-09-05 18:42:00,85.2,59.6,-100.00,North,355,13.4,20.8,42,0.00,,,-99.99,151.0,HOBO +U30 +Weather +,2013-09-06 00:42:00,
2013-09-05 18:45:00,84.0,59.7,-100.00,NNE,14,7.4,11.9,43,0.00,,,-99.99,126.0,HOBO +U30 +Weather +,2013-09-06 00:45:00,
2013-09-05 18:50:00,83.5,60.1,-100.00,NNE,14,7.8,12.3,45,0.00,,,-99.99,114.0,HOBO +U30 +Weather +,2013-09-06 00:50:00,
2013-09-05 18:55:00,83.1,60.0,-100.00,NNE,15,7.8,11.2,45,0.00,,,-99.99,99.0,HOBO +U30 +Weather +,2013-09-06 00:55:00,
2013-09-05 19:00:00,83.5,59.9,-100.00,North,4,7.8,13.0,44,0.00,,,-99.99,84.0,HOBO +U30 +Weather +,2013-09-06 01:00:00,
2013-09-05 19:05:00,83.5,59.1,-100.00,NNE,14,8.5,11.9,43,0.00,,,-99.99,68.0,HOBO +U30 +Weather +,2013-09-06 01:05:00,
2013-09-05 19:10:00,83.7,58.4,-100.00,NNE,13,9.6,15.9,42,0.00,,,-99.99,56.0,HOBO +U30 +Weather +,2013-09-06 01:10:00,
2013-09-05 19:15:00,83.6,58.7,-100.00,NNE,14,10.1,14.5,42,0.00,,,-99.99,43.0,HOBO +U30 +Weather +,2013-09-06 01:15:00,
2013-09-05 19:20:00,83.7,58.5,-100.00,North,10,8.5,13.4,42,0.00,,,-99.99,33.0,HOBO +U30 +Weather +,2013-09-06 01:20:00,
2013-09-05 19:25:00,83.4,58.4,-100.00,NNE,15,8.9,14.1,42,0.00,,,-99.99,24.0,HOBO +U30 +Weather +,2013-09-06 01:25:00,
2013-09-05 19:30:00,83.2,58.1,-100.00,NNE,14,8.5,13.0,42,0.00,,,-99.99,13.0,HOBO +U30 +Weather +,2013-09-06 01:30:00,
2013-09-05 19:42:00,82.8,58.2,-100.00,NNE,18,8.5,13.4,43,0.00,,,-99.99,4.0,HOBO +U30 +Weather +,2013-09-06 01:42:00,
2013-09-05 19:45:00,82.5,58.3,-100.00,NNE,25,6.3,9.6,43,0.00,,,-99.99,2.0,HOBO +U30 +Weather +,2013-09-06 01:45:00,
2013-09-05 19:50:00,82.1,59.8,-100.00,NNE,25,4.0,7.4,46,0.00,,,-99.99,1.0,HOBO +U30 +Weather +,2013-09-06 01:50:00,
2013-09-05 19:55:00,81.3,60.2,-100.00,NE,41,4.5,6.7,48,0.00,,,-99.99,1.0,HOBO +U30 +Weather +,2013-09-06 01:55:00,
2013-09-05 20:00:00,81.4,59.8,-100.00,NNE,27,4.0,6.7,47,0.00,,,-99.99,1.0,HOBO +U30 +Weather +,2013-09-06 02:00:00,
2013-09-05 20:05:00,80.8,60.9,-100.00,NE,41,3.4,6.3,50,0.00,,,-99.99,1.0,HOBO +U30 +Weather +,2013-09-06 02:05:00,
2013-09-05 20:10:00,80.5,60.7,-100.00,NE,45,5.1,8.5,50,0.00,,,-99.99,1.0,HOBO +U30 +Weather +,2013-09-06 02:10:00,
2013-09-05 20:15:00,80.3,60.7,-100.00,NE,45,4.0,5.6,51,0.00,,,-99.99,1.0,HOBO +U30 +Weather +,2013-09-06 02:15:00,
2013-09-05 20:20:00,80.3,60.8,-100.00,NE,39,2.9,5.1,51,0.00,,,-99.99,1.0,HOBO +U30 +Weather +,2013-09-06 02:20:00,
2013-09-05 20:25:00,80.8,60.2,-100.00,NNE,31,1.8,5.1,49,0.00,,,-99.99,1.0,HOBO +U30 +Weather +,2013-09-06 02:25:00,
2013-09-05 20:30:00,80.7,60.8,-100.00,NNE,29,1.1,3.4,50,0.00,,,-99.99,1.0,HOBO +U30 +Weather +,2013-09-06 02:30:00,
2013-09-05 20:40:00,80.1,59.7,-100.00,NNE,29,1.1,2.9,49,0.00,,,-99.99,1.0,HOBO +U30 +Weather +,2013-09-06 02:40:00,
2013-09-05 20:41:00,80.3,60.3,-100.00,NNE,29,0.0,0.7,50,0.00,,,-99.99,1.0,HOBO +U30 +Weather +,2013-09-06 02:41:00,
2013-09-05 20:45:00,79.9,59.8,-100.00,NNE,29,0.7,2.2,50,0.00,,,-99.99,1.0,HOBO +U30 +Weather +,2013-09-06 02:45:00,
2013-09-05 20:50:00,79.2,59.7,-100.00,NNE,29,0.0,0.0,51,0.00,,,-99.99,1.0,HOBO +U30 +Weather +,2013-09-06 02:50:00,
2013-09-05 20:55:00,79.1,59.6,-100.00,NNE,29,0.0,0.0,51,0.00,,,-99.99,1.0,HOBO +U30 +Weather +,2013-09-06 02:55:00,
2013-09-05 21:00:00,78.6,60.1,-100.00,NNE,29,0.0,0.7,53,0.00,,,-99.99,1.0,HOBO +U30 +Weather +,2013-09-06 03:00:00,
2013-09-05 21:05:00,79.0,59.5,-100.00,NNE,29,0.0,2.2,51,0.00,,,-99.99,1.0,HOBO +U30 +Weather +,2013-09-06 03:05:00,
2013-09-05 21:10:00,79.7,58.9,-100.00,NNW,344,1.1,4.5,49,0.00,,,-99.99,1.0,HOBO +U30 +Weather +,2013-09-06 03:10:00,
2013-09-05 21:15:00,79.5,58.5,-100.00,WNW,300,0.7,1.8,48,0.00,,,-99.99,1.0,HOBO +U30 +Weather +,2013-09-06 03:15:00,
2013-09-05 21:20:00,79.3,58.9,-100.00,WNW,300,0.0,0.0,49,0.00,,,-99.99,1.0,HOBO +U30 +Weather +,2013-09-06 03:20:00,
2013-09-05 21:25:00,79.4,58.9,-100.00,WNW,300,0.7,2.2,49,0.00,,,-99.99,1.0,HOBO +U30 +Weather +,2013-09-06 03:25:00,
2013-09-05 21:39:00,79.6,58.1,-100.00,WNW,292,1.8,2.9,47,0.00,,,-99.99,1.0,HOBO +U30 +Weather +,2013-09-06 03:39:00,
2013-09-05 21:40:00,78.7,60.2,-100.00,WSW,257,1.1,3.4,53,0.00,,,-99.99,1.0,HOBO +U30 +Weather +,2013-09-06 03:40:00,
2013-09-05 21:45:00,78.3,60.4,-100.00,SSW,206,2.2,5.6,54,0.00,,,-99.99,1.0,HOBO +U30 +Weather +,2013-09-06 03:45:00,
2013-09-05 21:50:00,77.6,60.7,-100.00,SSW,209,3.4,5.6,56,0.00,,,-99.99,1.0,HOBO +U30 +Weather +,2013-09-06 03:50:00,
2013-09-05 21:55:00,77.0,60.6,-100.00,SSW,208,3.4,5.6,56,0.00,,,-99.99,1.0,HOBO +U30 +Weather +,2013-09-06 03:55:00,
2013-09-05 22:00:00,77.0,60.2,-100.00,SSW,209,2.9,5.1,56,0.00,,,-99.99,1.0,HOBO +U30 +Weather +,2013-09-06 04:00:00,
2013-09-05 22:05:00,77.1,60.3,-100.00,SSW,202,1.1,3.4,56,0.00,,,-99.99,1.0,HOBO +U30 +Weather +,2013-09-06 04:05:00,
2013-09-05 22:10:00,76.6,60.6,-100.00,SSW,197,2.9,4.5,57,0.00,,,-99.99,1.0,HOBO +U30 +Weather +,2013-09-06 04:10:00,
2013-09-05 22:15:00,75.2,61.4,-100.00,SE,140,2.2,4.0,62,0.00,,,-99.99,1.0,HOBO +U30 +Weather +,2013-09-06 04:15:00,
2013-09-05 22:20:00,75.4,61.6,-100.00,South,180,1.8,3.4,62,0.00,,,-99.99,1.0,HOBO +U30 +Weather +,2013-09-06 04:20:00,
2013-09-05 22:25:00,75.3,61.4,-100.00,SSW,206,0.7,1.8,62,0.00,,,-99.99,1.0,HOBO +U30 +Weather +,2013-09-06 04:25:00,
2013-09-05 22:38:00,76.2,61.6,-100.00,SSW,209,4.0,7.4,60,0.00,,,-99.99,1.0,HOBO +U30 +Weather +,2013-09-06 04:38:00,
2013-09-05 22:40:00,74.8,61.1,-100.00,South,177,8.9,16.3,62,0.00,,,-99.99,1.0,HOBO +U30 +Weather +,2013-09-06 04:40:00,
2013-09-05 22:45:00,68.7,58.7,-100.00,ESE,122,12.3,37.8,70,1.32,,,-99.99,1.0,HOBO +U30 +Weather +,2013-09-06 04:45:00,
2013-09-05 22:50:00,68.8,60.2,-100.00,NE,55,14.1,38.9,74,2.17,,,-99.99,1.0,HOBO +U30 +Weather +,2013-09-06 04:50:00,
2013-09-05 22:55:00,70.2,59.8,-100.00,WNW,302,6.3,12.3,69,0.14,,,-99.99,1.0,HOBO +U30 +Weather +,2013-09-06 04:55:00,
2013-09-05 23:00:00,70.9,60.4,-100.00,WNW,282,8.9,13.0,69,0.00,,,-99.99,1.0,HOBO +U30 +Weather +,2013-09-06 05:00:00,
2013-09-05 23:05:00,71.7,60.8,-100.00,West,274,7.8,11.9,68,0.00,,,-99.99,1.0,HOBO +U30 +Weather +,2013-09-06 05:05:00,
2013-09-05 23:10:00,71.3,61.3,-100.00,NW,313,4.5,11.9,70,0.00,,,-99.99,1.0,HOBO +U30 +Weather +,2013-09-06 05:10:00,
2013-09-05 23:15:00,71.2,61.3,-100.00,NE,44,11.9,15.2,70,0.00,,,-99.99,1.0,HOBO +U30 +Weather +,2013-09-06 05:15:00,
2013-09-05 23:20:00,71.3,61.5,-100.00,NNE,32,5.6,11.2,71,0.00,,,-99.99,1.0,HOBO +U30 +Weather +,2013-09-06 05:20:00,
2013-09-05 23:25:00,70.8,62.2,-100.00,North,3,2.9,7.4,74,0.00,,,-99.99,1.0,HOBO +U30 +Weather +,2013-09-06 05:25:00,
2013-09-05 23:30:00,71.2,63.5,-100.00,NW,320,4.5,7.4,76,0.00,,,-99.99,1.0,HOBO +U30 +Weather +,2013-09-06 05:30:00,
2013-09-05 23:35:00,71.4,64.0,-100.00,SSW,202,5.6,11.9,77,0.00,,,-99.99,1.0,HOBO +U30 +Weather +,2013-09-06 05:35:00,
2013-09-05 23:40:00,70.2,63.8,-100.00,South,185,6.3,11.2,80,0.00,,,-99.99,1.0,HOBO +U30 +Weather +,2013-09-06 05:40:00,
2013-09-05 23:45:00,71.1,63.3,-100.00,SSW,206,7.4,9.6,76,0.00,,,-99.99,1.0,HOBO +U30 +Weather +,2013-09-06 05:45:00,
2013-09-05 23:50:00,71.6,63.4,-100.00,SSW,199,8.5,11.2,75,0.00,,,-99.99,1.0,HOBO +U30 +Weather +,2013-09-06 05:50:00,
2013-09-05 23:55:00,71.0,63.0,-100.00,South,177,8.5,13.4,75,0.00,,,-99.99,1.0,HOBO +U30 +Weather +,2013-09-06 05:55:00,